createdAt,value
2022-12-01T00:01:28.818Z,101434.29
2022-12-01T00:03:57.702Z,101427.92
2022-12-01T00:06:25.476Z,101430.45
2022-12-01T00:09:16.465Z,101426.71
2022-12-01T00:11:48.960Z,101421.68
2022-12-01T00:14:17.406Z,101423.96
2022-12-01T00:16:45.242Z,101418.15
2022-12-01T00:19:13.065Z,101422.05
2022-12-01T00:21:40.789Z,101419.17
2022-12-01T00:24:09.458Z,101420.84
2022-12-01T00:26:37.870Z,101418.20
2022-12-01T00:29:05.640Z,101421.83
2022-12-01T00:31:34.352Z,101421.72
2022-12-01T00:34:05.607Z,101418.61
2022-12-01T00:36:35.862Z,101421.20
2022-12-01T00:39:03.619Z,101421.13
2022-12-01T00:41:31.292Z,101422.14
2022-12-01T00:43:59.005Z,101418.49
2022-12-01T00:46:26.831Z,101423.50
2022-12-01T00:48:54.592Z,101422.23
2022-12-01T00:51:22.308Z,101420.70
2022-12-01T00:53:50.040Z,101424.19
2022-12-01T00:56:17.952Z,101421.02
2022-12-01T00:58:45.679Z,101417.15
2022-12-01T01:01:13.889Z,101415.38
2022-12-01T01:03:41.691Z,101414.02
2022-12-01T01:06:11.849Z,101415.73
2022-12-01T01:08:40.522Z,101415.70
2022-12-01T01:11:09.260Z,101418.84
2022-12-01T01:13:37.558Z,101414.77
2022-12-01T01:16:19.663Z,101411.95
2022-12-01T01:18:48.316Z,101408.97
2022-12-01T01:21:18.617Z,101407.95
2022-12-01T01:23:47.023Z,101408.70
2022-12-01T01:26:19.976Z,101404.55
2022-12-01T01:28:48.824Z,101403.09
2022-12-01T01:31:19.274Z,101399.60
2022-12-01T01:33:47.688Z,101401.49
2022-12-01T01:36:15.946Z,101398.27
2022-12-01T01:38:43.882Z,101398.80
2022-12-01T01:41:12.358Z,101399.16
2022-12-01T01:43:51.717Z,101394.36
2022-12-01T01:46:25.160Z,101393.53
2022-12-01T01:49:05.197Z,101393.46
2022-12-01T01:51:42.705Z,101389.20
2022-12-01T01:54:33.747Z,101389.14
2022-12-01T01:57:02.238Z,101389.30
2022-12-01T01:59:33.124Z,101386.04
2022-12-01T02:02:06.057Z,101389.45
2022-12-01T02:04:36.400Z,101383.55
2022-12-01T02:07:05.255Z,101381.59
2022-12-01T02:09:33.009Z,101376.03
2022-12-01T02:12:16.082Z,101379.41
2022-12-01T02:14:49.899Z,101377.75
2022-12-01T02:17:31.611Z,101386.73
2022-12-01T02:20:11.770Z,101388.95
2022-12-01T02:23:01.341Z,101386.20
2022-12-01T02:26:06.900Z,101388.73
2022-12-01T02:28:34.596Z,101388.60
2022-12-01T02:31:33.949Z,101388.84
2022-12-01T02:34:41.125Z,101389.82
2022-12-01T02:37:21.078Z,101385.65
2022-12-01T02:39:54.321Z,101383.44
2022-12-01T02:42:54.608Z,101386.48
2022-12-01T02:45:52.699Z,101381.15
2022-12-01T02:48:23.277Z,101375.28
2022-12-01T02:50:52.437Z,101374.80
2022-12-01T02:53:20.592Z,101370.90
2022-12-01T02:55:50.289Z,101365.39
2022-12-01T02:58:18.217Z,101362.45
2022-12-01T03:01:30.846Z,101362.64
2022-12-01T03:04:01.469Z,101362.55
2022-12-01T03:07:24.799Z,101364.30
2022-12-01T03:10:20.114Z,101363.48
2022-12-01T03:13:35.709Z,101361.70
2022-12-01T03:16:15.911Z,101361.28
2022-12-01T03:18:56.705Z,101365.17
2022-12-01T03:21:37.068Z,101364.19
2022-12-01T03:24:11.751Z,101358.18
2022-12-01T03:26:42.057Z,101350.96
2022-12-01T03:29:13.427Z,101353.52
2022-12-01T03:32:03.876Z,101351.64
2022-12-01T03:34:40.778Z,101354.23
2022-12-01T03:37:36.557Z,101356.69
2022-12-01T03:40:08.053Z,101356.72
2022-12-01T03:42:40.694Z,101359.17
2022-12-01T03:45:14.317Z,101357.01
2022-12-01T03:47:42.194Z,101356.22
2022-12-01T03:50:13.906Z,101361.45
2022-12-01T03:53:00.619Z,101360.90
2022-12-01T03:55:32.714Z,101359.67
2022-12-01T03:58:06.709Z,101360.85
2022-12-01T04:00:35.042Z,101365.33
2022-12-01T04:03:04.236Z,101362.64
2022-12-01T04:05:34.227Z,101363.46
2022-12-01T04:08:02.409Z,101364.12
2022-12-01T04:10:30.249Z,101364.19
2022-12-01T04:12:59.707Z,101361.83
2022-12-01T04:15:28.400Z,101362.45
2022-12-01T04:17:56.486Z,101356.36
2022-12-01T04:20:24.231Z,101363.90
2022-12-01T04:22:52.096Z,101359.45
2022-12-01T04:25:19.818Z,101363.11
2022-12-01T04:27:50.171Z,101363.45
2022-12-01T04:30:18.394Z,101359.55
2022-12-01T04:32:46.585Z,101359.55
2022-12-01T04:35:14.411Z,101361.69
2022-12-01T04:37:42.130Z,101364.77
2022-12-01T04:40:10.577Z,101362.88
2022-12-01T04:42:38.316Z,101362.80
2022-12-01T04:45:06.540Z,101361.20
2022-12-01T04:47:34.219Z,101364.98
2022-12-01T04:50:02.119Z,101359.98
2022-12-01T04:52:34.988Z,101363.40
2022-12-01T04:55:04.053Z,101363.13
2022-12-01T04:57:31.736Z,101361.57
2022-12-01T04:59:59.414Z,101363.19
2022-12-01T05:02:27.256Z,101359.94
2022-12-01T05:04:55.082Z,101365.05
2022-12-01T05:07:22.844Z,101364.55
2022-12-01T05:09:50.962Z,101370.25
2022-12-01T05:12:20.436Z,101372.78
2022-12-01T05:14:48.479Z,101372.06
2022-12-01T05:17:16.219Z,101370.61
2022-12-01T05:20:02.923Z,101374.55
2022-12-01T05:22:57.257Z,101374.04
2022-12-01T05:25:19.353Z,101372.90
2022-12-01T05:27:47.024Z,101369.97
2022-12-01T05:30:14.816Z,101370.94
2022-12-01T05:32:42.631Z,101372.16
2022-12-01T05:35:10.392Z,101371.41
2022-12-01T05:37:38.276Z,101369.50
2022-12-01T05:40:07.090Z,101374.07
2022-12-01T05:42:34.861Z,101367.95
2022-12-01T05:45:02.598Z,101369.70
2022-12-01T05:47:30.342Z,101372.09
2022-12-01T05:50:02.193Z,101375.08
2022-12-01T05:52:35.183Z,101370.98
2022-12-01T05:55:07.251Z,101372.46
2022-12-01T05:57:34.964Z,101373.52
2022-12-01T06:00:05.320Z,101373.57
2022-12-01T06:02:40.306Z,101374.15
2022-12-01T06:05:09.319Z,101377.35
2022-12-01T06:07:40.150Z,101376.50
2022-12-01T06:10:09.473Z,101373.64
2022-12-01T06:12:37.653Z,101372.81
2022-12-01T06:15:06.701Z,101379.80
2022-12-01T06:17:39.751Z,101380.48
2022-12-01T06:20:09.117Z,101382.77
2022-12-01T06:22:37.346Z,101378.26
2022-12-01T06:25:05.612Z,101378.99
2022-12-01T06:27:33.340Z,101377.80
2022-12-01T06:30:01.176Z,101383.13
2022-12-01T06:32:28.893Z,101387.73
2022-12-01T06:34:56.662Z,101383.76
2022-12-01T06:37:24.400Z,101385.11
2022-12-01T06:39:52.553Z,101387.98
2022-12-01T06:42:20.604Z,101385.14
2022-12-01T06:44:48.436Z,101382.85
2022-12-01T06:47:16.160Z,101387.75
2022-12-01T06:49:44.119Z,101387.73
2022-12-01T06:52:11.898Z,101387.83
2022-12-01T06:54:39.736Z,101391.08
2022-12-01T06:57:07.762Z,101392.14
2022-12-01T06:59:35.913Z,101388.09
2022-12-01T07:02:04.226Z,101390.24
2022-12-01T07:04:32.103Z,101390.48
2022-12-01T07:06:59.821Z,101391.09
2022-12-01T07:09:27.720Z,101390.70
2022-12-01T07:11:55.540Z,101393.62
2022-12-01T07:14:24.916Z,101396.86
2022-12-01T07:16:53.092Z,101396.70
2022-12-01T07:19:20.925Z,101397.20
2022-12-01T07:21:48.798Z,101398.98
2022-12-01T07:24:16.680Z,101399.57
2022-12-01T07:26:44.575Z,101400.46
2022-12-01T07:29:12.245Z,101402.83
2022-12-01T07:31:40.063Z,101404.86
2022-12-01T07:34:11.489Z,101406.17
2022-12-01T07:36:39.536Z,101402.04
2022-12-01T07:39:08.428Z,101404.02
2022-12-01T07:41:36.304Z,101405.25
2022-12-01T07:44:04.079Z,101402.42
2022-12-01T07:46:32.293Z,101406.65
2022-12-01T07:49:00.423Z,101402.21
2022-12-01T07:51:28.303Z,101407.58
2022-12-01T07:53:56.103Z,101411.29
2022-12-01T07:56:23.938Z,101412.77
2022-12-01T07:58:51.799Z,101410.27
2022-12-01T08:01:22.355Z,101412.69
2022-12-01T08:03:51.902Z,101410.87
2022-12-01T08:06:20.456Z,101414.14
2022-12-01T08:08:48.949Z,101411.45
2022-12-01T08:11:22.239Z,101408.08
2022-12-01T08:13:50.956Z,101412.14
2022-12-01T08:16:20.603Z,101413.15
2022-12-01T08:18:48.622Z,101415.17
2022-12-01T08:21:19.722Z,101415.77
2022-12-01T08:23:48.131Z,101414.89
2022-12-01T08:26:18.597Z,101418.60
2022-12-01T08:28:47.189Z,101411.26
2022-12-01T08:31:24.840Z,101411.71
2022-12-01T08:33:53.435Z,101410.87
2022-12-01T08:36:22.812Z,101409.64
2022-12-01T08:38:52.621Z,101406.50
2022-12-01T08:41:20.856Z,101407.04
2022-12-01T08:44:03.992Z,101408.92
2022-12-01T08:46:33.633Z,101410.43
2022-12-01T08:49:02.532Z,101407.56
2022-12-01T08:51:30.925Z,101414.15
2022-12-01T08:53:59.705Z,101411.98
2022-12-01T08:56:27.367Z,101414.79
2022-12-01T08:58:55.685Z,101414.13
2022-12-01T09:01:25.596Z,101412.43
2022-12-01T09:04:05.698Z,101414.80
2022-12-01T09:06:44.475Z,101413.80
2022-12-01T09:09:21.714Z,101411.95
2022-12-01T09:11:52.223Z,101411.77
2022-12-01T09:14:20.885Z,101411.24
2022-12-01T09:16:50.176Z,101407.33
2022-12-01T09:19:24.199Z,101403.91
2022-12-01T09:21:53.055Z,101405.76
2022-12-01T09:24:20.974Z,101407.70
2022-12-01T09:26:49.436Z,101406.77
2022-12-01T09:29:17.359Z,101406.73
2022-12-01T09:31:45.132Z,101400.36
2022-12-01T09:34:16.483Z,101402.41
2022-12-01T09:36:45.393Z,101401.52
2022-12-01T09:39:15.917Z,101399.23
2022-12-01T09:42:08.414Z,101391.23
2022-12-01T09:44:45.589Z,101392.14
2022-12-01T09:47:18.953Z,101392.90
2022-12-01T09:49:55.996Z,101389.67
2022-12-01T09:52:26.248Z,101386.20
2022-12-01T09:54:55.301Z,101385.09
2022-12-01T09:57:35.285Z,101378.67
2022-12-01T10:00:14.732Z,101381.60
2022-12-01T10:03:40.465Z,101378.73
2022-12-01T10:06:27.291Z,101377.88
2022-12-01T10:09:16.132Z,101376.75
2022-12-01T10:11:44.816Z,101372.89
2022-12-01T10:14:20.030Z,101372.45
2022-12-01T10:17:06.689Z,101371.85
2022-12-01T10:19:49.844Z,101368.42
2022-12-01T10:22:31.410Z,101366.80
2022-12-01T10:25:25.358Z,101372.08
2022-12-01T10:28:08.248Z,101369.40
2022-12-01T10:30:46.649Z,101368.49
2022-12-01T10:33:27.225Z,101365.19
2022-12-01T10:35:54.989Z,101361.55
2022-12-01T10:38:26.405Z,101358.91
2022-12-01T10:40:54.732Z,101357.90
2022-12-01T10:43:30.134Z,101352.95
2022-12-01T10:45:58.225Z,101352.61
2022-12-01T10:48:26.003Z,101353.80
2022-12-01T10:50:56.158Z,101351.70
2022-12-01T10:53:23.822Z,101349.25
2022-12-01T10:56:15.226Z,101348.50
2022-12-01T10:58:54.432Z,101346.55
2022-12-01T11:01:27.088Z,101345.80
2022-12-01T11:03:57.790Z,101341.95
2022-12-01T11:06:28.412Z,101342.37
2022-12-01T11:08:58.416Z,101344.10
2022-12-01T11:11:34.190Z,101343.44
2022-12-01T11:14:04.984Z,101344.27
2022-12-01T11:16:44.196Z,101344.41
2022-12-01T11:19:33.500Z,101338.86
2022-12-01T11:22:17.523Z,101338.73
2022-12-01T11:24:54.348Z,101337.59
2022-12-01T11:27:24.330Z,101333.48
2022-12-01T11:29:55.248Z,101329.16
2022-12-01T11:32:24.309Z,101327.06
2022-12-01T11:34:59.257Z,101329.02
2022-12-01T11:37:36.293Z,101332.74
2022-12-01T11:40:24.116Z,101327.54
2022-12-01T11:42:54.693Z,101325.98
2022-12-01T11:45:27.507Z,101327.68
2022-12-01T11:48:00.431Z,101327.22
2022-12-01T11:50:34.113Z,101321.64
2022-12-01T11:53:02.278Z,101327.46
2022-12-01T11:55:31.221Z,101326.16
2022-12-01T11:58:04.116Z,101333.63
2022-12-01T12:00:54.908Z,101328.91
2022-12-01T12:03:38.066Z,101331.84
2022-12-01T12:06:38.791Z,101328.25
2022-12-01T12:09:08.762Z,101327.42
2022-12-01T12:12:02.684Z,101329.00
2022-12-01T12:15:02.497Z,101328.16
2022-12-01T12:17:49.720Z,101326.99
2022-12-01T12:20:39.331Z,101327.02
2022-12-01T12:23:07.354Z,101323.14
2022-12-01T12:26:02.659Z,101325.09
2022-12-01T12:28:37.482Z,101321.77
2022-12-01T12:31:11.128Z,101321.73
2022-12-01T12:33:53.410Z,101324.47
2022-12-01T12:36:35.293Z,101329.53
2022-12-01T12:39:27.613Z,101325.52
2022-12-01T12:41:56.755Z,101318.73
2022-12-01T12:44:39.875Z,101319.69
2022-12-01T12:47:31.121Z,101325.29
2022-12-01T12:50:05.009Z,101318.99
2022-12-01T12:52:45.926Z,101317.09
2022-12-01T12:55:42.723Z,101319.27
2022-12-01T12:58:27.550Z,101320.69
2022-12-01T13:01:18.036Z,101319.12
2022-12-01T13:03:55.244Z,101320.73
2022-12-01T13:06:25.964Z,101326.95
2022-12-01T13:09:03.186Z,101324.94
2022-12-01T13:11:45.087Z,101328.84
2022-12-01T13:14:28.661Z,101327.89
2022-12-01T13:17:02.691Z,101322.52
2022-12-01T13:19:33.768Z,101323.50
2022-12-01T13:22:02.287Z,101323.43
2022-12-01T13:24:31.313Z,101322.65
2022-12-01T13:27:02.909Z,101327.67
2022-12-01T13:29:38.389Z,101327.23
2022-12-01T13:32:31.870Z,101325.90
2022-12-01T13:35:00.822Z,101331.90
2022-12-01T13:37:34.112Z,101332.98
2022-12-01T13:40:20.270Z,101328.45
2022-12-01T13:43:15.305Z,101329.25
2022-12-01T13:45:43.483Z,101330.94
2022-12-01T13:48:29.832Z,101334.19
2022-12-01T13:51:00.376Z,101335.22
2022-12-01T13:53:36.543Z,101333.02
2022-12-01T13:56:05.584Z,101330.81
2022-12-01T13:58:33.246Z,101330.64
2022-12-01T14:01:20.089Z,101325.73
2022-12-01T14:04:13.367Z,101325.99
2022-12-01T14:06:49.375Z,101324.38
2022-12-01T14:09:38.588Z,101327.09
2022-12-01T14:12:25.857Z,101322.60
2022-12-01T14:14:59.010Z,101321.95
2022-12-01T14:17:28.919Z,101325.27
2022-12-01T14:20:12.459Z,101330.39
2022-12-01T14:22:41.996Z,101326.49
2022-12-01T14:25:22.485Z,101326.67
2022-12-01T14:27:54.155Z,101327.48
2022-12-01T14:30:46.438Z,101329.79
2022-12-01T14:33:39.521Z,101333.29
2022-12-01T14:36:22.917Z,101327.65
2022-12-01T14:38:59.632Z,101326.55
2022-12-01T14:41:45.601Z,101331.23
2022-12-01T14:44:23.443Z,101325.33
2022-12-01T14:47:13.682Z,101325.36
2022-12-01T14:49:47.677Z,101325.96
2022-12-01T14:52:35.602Z,101328.65
2022-12-01T14:55:06.981Z,101333.16
2022-12-01T14:57:39.946Z,101328.39
2022-12-01T15:00:14.694Z,101328.64
2022-12-01T15:02:47.537Z,101324.87
2022-12-01T15:05:21.044Z,101324.47
2022-12-01T15:07:50.483Z,101320.27
2022-12-01T15:10:22.903Z,101319.66
2022-12-01T15:12:51.861Z,101314.52
2022-12-01T15:15:24.283Z,101311.40
2022-12-01T15:17:57.765Z,101312.77
2022-12-01T15:20:36.100Z,101312.83
2022-12-01T15:23:15.430Z,101312.61
2022-12-01T15:25:45.054Z,101316.70
2022-12-01T15:28:21.093Z,101313.64
2022-12-01T15:30:54.315Z,101309.58
2022-12-01T15:33:28.269Z,101310.27
2022-12-01T15:35:59.206Z,101309.41
2022-12-01T15:38:30.668Z,101306.85
2022-12-01T15:41:28.501Z,101312.06
2022-12-01T15:43:56.077Z,101314.84
2022-12-01T15:46:32.186Z,101314.97
2022-12-01T15:49:17.804Z,101312.79
2022-12-01T15:51:47.280Z,101313.18
2022-12-01T15:54:21.688Z,101311.81
2022-12-01T15:56:55.121Z,101313.13
2022-12-01T15:59:35.186Z,101307.23
2022-12-01T16:02:23.845Z,101306.19
2022-12-01T16:05:04.392Z,101304.08
2022-12-01T16:08:04.939Z,101303.57
2022-12-01T16:10:31.935Z,101303.55
2022-12-01T16:13:42.437Z,101304.20
2022-12-01T16:16:42.046Z,101304.61
2022-12-01T16:19:09.788Z,101309.65
2022-12-01T16:21:46.769Z,101310.20
2022-12-01T16:24:22.892Z,101310.64
2022-12-01T16:26:57.275Z,101308.82
2022-12-01T16:29:26.908Z,101308.92
2022-12-01T16:32:19.314Z,101305.78
2022-12-01T16:34:46.734Z,101306.80
2022-12-01T16:37:14.991Z,101307.45
2022-12-01T16:39:42.729Z,101306.25
2022-12-01T16:42:13.145Z,101303.39
2022-12-01T16:44:42.646Z,101305.03
2022-12-01T16:47:22.976Z,101302.91
2022-12-01T16:49:52.955Z,101304.31
2022-12-01T16:55:25.715Z,101301.66
2022-12-01T16:57:53.793Z,101299.87
2022-12-01T17:00:22.891Z,101303.73
2022-12-01T17:02:51.046Z,101306.04
2022-12-01T17:05:19.191Z,101302.91
2022-12-01T17:07:47.485Z,101301.20
2022-12-01T17:10:15.965Z,101302.23
2022-12-01T17:12:43.719Z,101300.75
2022-12-01T17:15:11.587Z,101299.30
2022-12-01T17:17:39.314Z,101300.99
2022-12-01T17:20:08.485Z,101299.75
2022-12-01T17:22:36.530Z,101297.33
2022-12-01T17:25:05.229Z,101294.11
2022-12-01T17:27:33.029Z,101299.30
2022-12-01T17:30:03.219Z,101298.83
2022-12-01T17:32:31.060Z,101298.88
2022-12-01T17:34:59.018Z,101299.61
2022-12-01T17:37:28.006Z,101299.75
2022-12-01T17:39:56.194Z,101298.94
2022-12-01T17:42:24.030Z,101303.77
2022-12-01T17:44:52.201Z,101300.73
2022-12-01T17:47:20.103Z,101301.98
2022-12-01T17:49:47.991Z,101301.56
2022-12-01T17:52:18.868Z,101301.96
2022-12-01T17:54:50.546Z,101301.70
2022-12-01T17:57:18.897Z,101305.20
2022-12-01T17:59:46.709Z,101311.34
2022-12-01T18:02:14.537Z,101304.98
2022-12-01T18:04:42.511Z,101310.86
2022-12-01T18:07:10.792Z,101308.57
2022-12-01T18:09:38.549Z,101311.68
2022-12-01T18:12:06.685Z,101314.35
2022-12-01T18:14:37.513Z,101310.64
2022-12-01T18:17:05.596Z,101309.31
2022-12-01T18:19:33.346Z,101312.21
2022-12-01T18:22:01.128Z,101313.61
2022-12-01T18:24:29.006Z,101310.83
2022-12-01T18:26:57.030Z,101312.77
2022-12-01T18:29:28.691Z,101310.48
2022-12-01T18:31:58.080Z,101310.71
2022-12-01T18:34:27.148Z,101306.15
2022-12-01T18:36:55.606Z,101308.33
2022-12-01T18:39:23.585Z,101307.23
2022-12-01T18:41:51.459Z,101304.39
2022-12-01T18:44:19.176Z,101305.08
2022-12-01T18:46:47.008Z,101301.66
2022-12-01T18:49:15.338Z,101307.36
2022-12-01T18:51:43.201Z,101307.16
2022-12-01T18:54:13.903Z,101307.48
2022-12-01T18:56:42.348Z,101315.38
2022-12-01T18:59:11.833Z,101313.48
2022-12-01T19:01:43.508Z,101313.83
2022-12-01T19:04:12.053Z,101305.46
2022-12-01T19:06:41.630Z,101304.95
2022-12-01T19:09:11.658Z,101302.75
2022-12-01T19:11:40.762Z,101303.27
2022-12-01T19:14:13.606Z,101300.89
2022-12-01T19:16:41.762Z,101298.96
2022-12-01T19:19:10.256Z,101299.11
2022-12-01T19:21:38.233Z,101298.50
2022-12-01T19:24:06.656Z,101298.29
2022-12-01T19:26:34.431Z,101300.30
2022-12-01T19:29:03.481Z,101296.12
2022-12-01T19:31:31.336Z,101294.40
2022-12-01T19:33:59.419Z,101297.94
2022-12-01T19:36:28.266Z,101299.69
2022-12-01T19:38:57.812Z,101302.84
2022-12-01T19:41:26.321Z,101302.77
2022-12-01T19:43:58.680Z,101307.36
2022-12-01T19:46:28.887Z,101306.65
2022-12-01T19:49:02.867Z,101302.27
2022-12-01T19:51:35.229Z,101298.20
2022-12-01T19:54:10.909Z,101298.95
2022-12-01T19:56:38.695Z,101302.58
2022-12-01T19:59:08.004Z,101306.77
2022-12-01T20:01:36.019Z,101307.23
2022-12-01T20:04:04.676Z,101299.84
2022-12-01T20:06:35.572Z,101302.39
2022-12-01T20:09:05.339Z,101300.16
2022-12-01T20:11:35.125Z,101302.83
2022-12-01T20:14:04.331Z,101302.59
2022-12-01T20:16:32.319Z,101301.66
2022-12-01T20:19:02.625Z,101302.14
2022-12-01T20:21:32.596Z,101300.02
2022-12-01T20:24:06.301Z,101299.61
2022-12-01T20:26:39.658Z,101298.35
2022-12-01T20:29:13.829Z,101293.19
2022-12-01T20:31:42.464Z,101292.45
2022-12-01T20:34:31.402Z,101294.02
2022-12-01T20:36:59.493Z,101295.55
2022-12-01T20:39:28.484Z,101293.86
2022-12-01T20:41:56.215Z,101295.14
2022-12-01T20:44:23.964Z,101293.50
2022-12-01T20:46:52.686Z,101294.17
2022-12-01T20:49:20.587Z,101296.76
2022-12-01T20:51:48.611Z,101292.07
2022-12-01T20:54:32.745Z,101291.64
2022-12-01T20:57:00.782Z,101289.09
2022-12-01T20:59:29.191Z,101289.52
2022-12-01T21:01:57.289Z,101290.43
2022-12-01T21:04:25.236Z,101294.62
2022-12-01T21:06:57.430Z,101289.84
2022-12-01T21:09:26.135Z,101290.86
2022-12-01T21:12:13.490Z,101288.40
2022-12-01T21:15:01.539Z,101285.15
2022-12-01T21:17:46.689Z,101290.43
2022-12-01T21:20:22.142Z,101288.27
2022-12-01T21:22:50.398Z,101285.83
2022-12-01T21:25:20.803Z,101287.65
2022-12-01T21:27:48.885Z,101284.14
2022-12-01T21:30:22.535Z,101284.85
2022-12-01T21:32:50.394Z,101284.59
2022-12-01T21:35:22.151Z,101284.36
2022-12-01T21:37:51.224Z,101284.20
2022-12-01T21:40:24.290Z,101285.08
2022-12-01T21:42:52.048Z,101286.92
2022-12-01T21:45:32.131Z,101286.86
2022-12-01T21:48:06.662Z,101288.39
2022-12-01T21:50:34.391Z,101285.21
2022-12-01T21:53:02.118Z,101280.13
2022-12-01T21:55:34.929Z,101284.89
2022-12-01T21:58:02.990Z,101284.73
2022-12-01T22:00:31.787Z,101279.48
2022-12-01T22:03:21.635Z,101279.83
2022-12-01T22:06:13.623Z,101275.13
2022-12-01T22:08:41.493Z,101276.30
2022-12-01T22:11:18.523Z,101276.48
2022-12-01T22:14:06.555Z,101275.46
2022-12-01T22:16:37.292Z,101275.64
2022-12-01T22:19:23.552Z,101270.86
2022-12-01T22:22:15.836Z,101268.94
2022-12-01T22:24:48.594Z,101268.20
2022-12-01T22:27:32.489Z,101263.64
2022-12-01T22:30:17.057Z,101264.40
2022-12-01T22:32:59.744Z,101264.88
2022-12-01T22:35:42.030Z,101272.71
2022-12-01T22:38:31.382Z,101271.77
2022-12-01T22:41:06.095Z,101274.57
2022-12-01T22:43:55.874Z,101276.77
2022-12-01T22:46:23.785Z,101272.47
2022-12-01T22:49:13.736Z,101275.12
2022-12-01T22:51:43.796Z,101270.33
2022-12-01T22:54:14.521Z,101269.90
2022-12-01T22:56:42.191Z,101267.45
2022-12-01T22:59:19.669Z,101267.84
2022-12-01T23:01:58.915Z,101264.16
2022-12-01T23:04:33.378Z,101261.29
2022-12-01T23:07:27.207Z,101264.46
2022-12-01T23:10:16.475Z,101262.24
2022-12-01T23:12:46.244Z,101260.06
2022-12-01T23:15:20.221Z,101259.46
2022-12-01T23:17:49.260Z,101257.44
2022-12-01T23:20:20.052Z,101251.83
2022-12-01T23:22:47.989Z,101251.10
2022-12-01T23:25:19.202Z,101244.91
2022-12-01T23:27:49.019Z,101246.92
2022-12-01T23:30:18.065Z,101244.89
2022-12-01T23:32:52.525Z,101248.74
2022-12-01T23:35:20.215Z,101244.17
2022-12-01T23:37:48.226Z,101248.95
2022-12-01T23:40:34.009Z,101239.54
2022-12-01T23:43:17.679Z,101241.52
2022-12-01T23:45:45.938Z,101241.90
2022-12-01T23:48:20.685Z,101239.70
2022-12-01T23:50:53.578Z,101238.98
2022-12-01T23:53:32.370Z,101229.78
2022-12-01T23:56:09.236Z,101226.71
2022-12-01T23:58:36.993Z,101229.08
